createdAt,value
2019-03-03T00:01:39.340Z,7.30
2019-03-03T00:04:05.533Z,7.30
2019-03-03T00:06:32.815Z,7.30
2019-03-03T00:08:59.001Z,7.30
2019-03-03T00:11:25.165Z,7.30
2019-03-03T00:13:51.454Z,7.30
2019-03-03T00:16:17.713Z,7.30
2019-03-03T00:18:43.907Z,7.20
2019-03-03T00:21:11.964Z,7.20
2019-03-03T00:23:40.100Z,7.30
2019-03-03T00:26:06.366Z,7.30
2019-03-03T00:28:32.915Z,7.20
2019-03-03T00:30:59.103Z,7.20
2019-03-03T00:33:25.265Z,7.20
2019-03-03T00:35:51.452Z,7.20
2019-03-03T00:38:19.511Z,7.20
2019-03-03T00:41:05.948Z,7.20
2019-03-03T00:43:39.606Z,7.20
2019-03-03T00:46:19.576Z,7.20
2019-03-03T00:48:47.661Z,7.20
2019-03-03T00:51:30.890Z,7.20
2019-03-03T00:53:58.973Z,7.10
2019-03-03T00:56:30.732Z,7.10
2019-03-03T00:58:58.795Z,7.10
2019-03-03T01:01:29.804Z,7.00
2019-03-03T01:04:04.053Z,7.00
2019-03-03T01:06:48.765Z,7.00
2019-03-03T01:09:44.103Z,7.10
2019-03-03T01:12:24.437Z,7.00
2019-03-03T01:15:01.620Z,7.00
2019-03-03T01:17:46.233Z,7.00
2019-03-03T01:20:14.305Z,7.00
2019-03-03T01:22:54.193Z,7.00
2019-03-03T01:25:20.353Z,7.10
2019-03-03T01:27:46.534Z,7.10
2019-03-03T01:30:12.944Z,7.10
2019-03-03T01:32:39.141Z,7.20
2019-03-03T01:35:07.609Z,7.20
2019-03-03T01:37:33.821Z,7.20
2019-03-03T01:40:00.996Z,7.20
2019-03-03T01:42:27.257Z,7.20
2019-03-03T01:44:53.435Z,7.20
2019-03-03T01:47:19.612Z,7.30
2019-03-03T01:49:45.818Z,7.30
2019-03-03T01:52:12.069Z,7.20
2019-03-03T01:54:38.252Z,7.20
2019-03-03T01:57:04.431Z,7.30
2019-03-03T01:59:30.613Z,7.20
2019-03-03T02:01:56.773Z,7.30
2019-03-03T02:04:22.952Z,7.30
2019-03-03T02:06:50.415Z,7.30
2019-03-03T02:09:16.821Z,7.40
2019-03-03T02:11:43.116Z,7.30
2019-03-03T02:14:09.361Z,7.40
2019-03-03T02:16:35.513Z,7.40
2019-03-03T02:19:01.906Z,7.40
2019-03-03T02:21:28.062Z,7.40
2019-03-03T02:23:54.242Z,7.30
2019-03-03T02:26:20.396Z,7.30
2019-03-03T02:28:46.597Z,7.20
2019-03-03T02:31:12.952Z,7.20
2019-03-03T02:33:39.122Z,7.20
2019-03-03T02:36:05.293Z,7.20
2019-03-03T02:38:31.484Z,7.30
2019-03-03T02:40:57.973Z,7.30
2019-03-03T02:43:24.204Z,7.30
2019-03-03T02:45:50.364Z,7.40
2019-03-03T02:48:16.525Z,7.30
2019-03-03T02:50:42.802Z,7.20
2019-03-03T02:53:09.022Z,7.30
2019-03-03T02:55:35.349Z,7.30
2019-03-03T02:58:02.417Z,7.30
2019-03-03T03:00:28.613Z,7.30
2019-03-03T03:02:58.175Z,7.30
2019-03-03T03:05:27.606Z,7.30
2019-03-03T03:07:55.783Z,7.30
2019-03-03T03:10:39.153Z,7.30
2019-03-03T03:13:19.391Z,7.30
2019-03-03T03:15:49.469Z,7.30
2019-03-03T03:18:21.365Z,7.20
2019-03-03T03:20:49.523Z,7.30
2019-03-03T03:23:17.625Z,7.30
2019-03-03T03:25:45.717Z,7.20
2019-03-03T03:28:19.951Z,7.30
2019-03-03T03:30:53.824Z,7.30
2019-03-03T03:33:21.924Z,7.30
2019-03-03T03:35:56.055Z,7.30
2019-03-03T03:38:24.565Z,7.30
2019-03-03T03:40:52.651Z,7.30
2019-03-03T03:43:37.766Z,7.30
2019-03-03T03:46:21.026Z,7.30
2019-03-03T03:48:49.433Z,7.30
2019-03-03T03:51:29.388Z,7.30
2019-03-03T03:54:34.440Z,7.30
2019-03-03T03:57:02.961Z,7.30
2019-03-03T03:59:31.055Z,7.30
2019-03-03T04:02:15.518Z,7.30
2019-03-03T04:04:43.791Z,7.30
2019-03-03T04:07:14.655Z,7.30
2019-03-03T04:09:42.763Z,7.40
2019-03-03T04:12:10.846Z,7.40
2019-03-03T04:14:38.946Z,7.40
2019-03-03T04:17:07.125Z,7.40
2019-03-03T04:19:41.484Z,7.40
2019-03-03T04:22:25.873Z,7.40
2019-03-03T04:24:53.952Z,7.40
2019-03-03T04:27:22.032Z,7.40
2019-03-03T04:29:50.109Z,7.40
2019-03-03T04:32:20.955Z,7.40
2019-03-03T04:34:51.812Z,7.40
2019-03-03T04:37:19.872Z,7.40
2019-03-03T04:39:50.478Z,7.40
2019-03-03T04:42:24.427Z,7.40
2019-03-03T04:44:58.513Z,7.40
2019-03-03T04:47:43.199Z,7.40
2019-03-03T04:50:14.047Z,7.40
2019-03-03T04:52:47.797Z,7.40
2019-03-03T04:55:15.917Z,7.40
2019-03-03T04:58:01.402Z,7.40
2019-03-03T05:00:44.680Z,7.40
2019-03-03T05:03:27.585Z,7.30
2019-03-03T05:05:59.733Z,7.30
2019-03-03T05:08:30.624Z,7.30
2019-03-03T05:11:01.493Z,7.30
2019-03-03T05:13:29.577Z,7.20
2019-03-03T05:16:06.462Z,7.30
2019-03-03T05:18:34.533Z,7.20
2019-03-03T05:21:00.694Z,7.20
2019-03-03T05:23:26.996Z,7.20
2019-03-03T05:25:53.159Z,7.10
2019-03-03T05:28:19.376Z,7.10
2019-03-03T05:30:45.604Z,7.10
2019-03-03T05:33:11.793Z,7.00
2019-03-03T05:35:38.963Z,7.00
2019-03-03T05:38:05.134Z,7.00
2019-03-03T05:40:31.328Z,7.00
2019-03-03T05:42:57.515Z,7.00
2019-03-03T05:45:23.697Z,6.80
2019-03-03T05:47:49.958Z,6.80
2019-03-03T05:50:16.305Z,6.80
2019-03-03T05:52:42.808Z,6.80
2019-03-03T05:55:09.115Z,6.90
2019-03-03T05:57:35.300Z,6.80
2019-03-03T06:00:02.423Z,6.80
2019-03-03T06:02:30.900Z,6.80
2019-03-03T06:04:57.125Z,6.80
2019-03-03T06:07:23.340Z,6.80
2019-03-03T06:09:49.574Z,6.80
2019-03-03T06:12:15.753Z,6.90
2019-03-03T06:14:41.943Z,7.00
2019-03-03T06:17:08.171Z,7.10
2019-03-03T06:19:34.394Z,7.00
2019-03-03T06:22:00.952Z,7.10
2019-03-03T06:24:27.133Z,7.10
2019-03-03T06:26:53.292Z,7.10
2019-03-03T06:29:19.533Z,7.20
2019-03-03T06:31:45.722Z,7.40
2019-03-03T06:34:12.010Z,7.40
2019-03-03T06:36:38.184Z,7.40
2019-03-03T06:39:05.862Z,7.50
2019-03-03T06:41:32.998Z,7.50
2019-03-03T06:43:59.201Z,7.60
2019-03-03T06:46:25.590Z,7.80
2019-03-03T06:48:52.035Z,8.10
2019-03-03T06:51:18.200Z,8.10
2019-03-03T06:53:44.390Z,8.30
2019-03-03T06:56:10.600Z,8.50
2019-03-03T06:58:36.756Z,8.60
2019-03-03T07:01:02.942Z,8.70
2019-03-03T07:03:29.320Z,8.70
2019-03-03T07:05:55.700Z,8.90
2019-03-03T07:08:22.033Z,9.00
2019-03-03T07:10:48.444Z,9.00
2019-03-03T07:13:14.718Z,9.30
2019-03-03T07:15:40.888Z,9.40
2019-03-03T07:18:07.081Z,9.40
2019-03-03T07:20:33.286Z,9.40
2019-03-03T07:22:59.485Z,9.50
2019-03-03T07:25:25.912Z,9.40
2019-03-03T07:27:52.124Z,9.40
2019-03-03T07:30:18.322Z,9.80
2019-03-03T07:33:04.703Z,10.10
2019-03-03T07:35:30.908Z,10.40
2019-03-03T07:37:57.220Z,10.60
2019-03-03T07:40:23.401Z,10.80
2019-03-03T07:42:49.838Z,11.00
2019-03-03T07:45:16.128Z,10.80
2019-03-03T07:47:42.301Z,10.80
2019-03-03T07:50:08.603Z,10.80
2019-03-03T07:52:34.794Z,10.80
2019-03-03T07:55:00.964Z,11.50
2019-03-03T07:57:27.135Z,12.10
2019-03-03T07:59:53.316Z,11.90
2019-03-03T08:02:19.496Z,11.70
2019-03-03T08:04:45.681Z,11.90
2019-03-03T08:07:11.871Z,11.80
2019-03-03T08:09:38.078Z,11.70
2019-03-03T08:12:04.258Z,12.00
2019-03-03T08:14:32.462Z,12.00
2019-03-03T08:16:58.926Z,12.30
2019-03-03T08:19:25.255Z,12.30
2019-03-03T08:21:51.761Z,12.10
2019-03-03T08:24:17.981Z,12.10
2019-03-03T08:26:44.177Z,12.80
2019-03-03T08:29:10.405Z,13.80
2019-03-03T08:31:36.591Z,14.90
2019-03-03T08:34:02.757Z,15.90
2019-03-03T08:36:29.084Z,16.60
2019-03-03T08:39:08.327Z,16.30
2019-03-03T08:41:36.525Z,16.20
2019-03-03T08:44:04.821Z,15.50
2019-03-03T08:46:32.908Z,15.90
2019-03-03T08:49:03.765Z,16.00
2019-03-03T08:51:37.431Z,16.50
2019-03-03T08:54:20.352Z,16.90
2019-03-03T08:56:51.208Z,18.00
2019-03-03T08:59:36.252Z,17.30
2019-03-03T09:02:04.550Z,17.20
2019-03-03T09:04:49.556Z,17.50
2019-03-03T09:07:20.424Z,16.90
2019-03-03T09:09:57.391Z,16.10
2019-03-03T09:12:34.700Z,16.00
2019-03-03T09:15:19.559Z,15.60
2019-03-03T09:17:47.624Z,15.20
2019-03-03T09:20:24.688Z,15.30
2019-03-03T09:22:52.756Z,15.00
2019-03-03T09:25:35.678Z,15.80
2019-03-03T09:28:09.604Z,17.70
2019-03-03T09:30:54.683Z,18.10
2019-03-03T09:33:39.570Z,19.30
2019-03-03T09:36:24.387Z,19.90
2019-03-03T09:38:58.497Z,20.70
2019-03-03T09:41:29.613Z,20.20
2019-03-03T09:43:57.709Z,20.50
2019-03-03T09:46:31.493Z,20.80
2019-03-03T09:48:59.569Z,20.20
2019-03-03T09:51:35.199Z,20.80
2019-03-03T09:54:21.444Z,20.80
2019-03-03T09:57:01.417Z,20.70
2019-03-03T09:59:35.568Z,20.40
2019-03-03T10:02:20.459Z,20.80
2019-03-03T10:04:48.559Z,21.20
2019-03-03T10:07:28.982Z,22.50
2019-03-03T10:10:05.939Z,21.90
2019-03-03T10:12:34.039Z,21.20
2019-03-03T10:15:07.789Z,22.00
2019-03-03T10:17:36.205Z,20.90
2019-03-03T10:20:16.128Z,20.70
2019-03-03T10:22:45.493Z,21.40
2019-03-03T10:25:31.929Z,22.30
2019-03-03T10:28:02.547Z,22.00
2019-03-03T10:30:31.711Z,22.20
2019-03-03T10:32:59.813Z,22.50
2019-03-03T10:35:44.815Z,21.70
2019-03-03T10:38:18.930Z,22.20
2019-03-03T10:40:53.022Z,21.50
2019-03-03T10:43:27.186Z,20.70
2019-03-03T10:46:11.920Z,20.80
2019-03-03T10:48:50.430Z,20.60
2019-03-03T10:51:21.573Z,20.80
2019-03-03T10:53:49.668Z,20.90
2019-03-03T10:56:23.808Z,21.90
2019-03-03T10:58:53.835Z,22.30
2019-03-03T11:01:21.942Z,21.90
2019-03-03T11:03:53.208Z,21.10
2019-03-03T11:06:36.747Z,21.40
2019-03-03T11:09:15.957Z,20.90
2019-03-03T11:11:46.542Z,20.20
2019-03-03T11:14:17.193Z,20.00
2019-03-03T11:16:51.601Z,20.00
2019-03-03T11:19:34.804Z,20.40
2019-03-03T11:22:05.685Z,21.20
2019-03-03T11:24:33.953Z,21.80
2019-03-03T11:27:18.950Z,21.10
2019-03-03T11:29:59.589Z,20.50
2019-03-03T11:32:36.520Z,20.70
2019-03-03T11:35:21.716Z,20.30
2019-03-03T11:38:02.308Z,20.30
2019-03-03T11:40:39.690Z,20.10
2019-03-03T11:43:14.162Z,19.50
2019-03-03T11:45:42.538Z,18.10
2019-03-03T11:48:27.126Z,18.30
2019-03-03T11:50:55.341Z,17.70
2019-03-03T11:53:33.416Z,17.70
2019-03-03T11:56:10.684Z,18.80
2019-03-03T11:58:48.181Z,19.70
2019-03-03T12:01:40.426Z,19.40
2019-03-03T12:04:24.093Z,18.70
2019-03-03T12:06:54.987Z,18.30
2019-03-03T12:09:23.218Z,18.40
2019-03-03T12:11:54.067Z,17.90
2019-03-03T12:14:38.651Z,17.00
2019-03-03T12:17:06.940Z,16.40
2019-03-03T12:19:51.961Z,16.40
2019-03-03T12:22:22.826Z,16.30
2019-03-03T12:24:59.849Z,16.20
2019-03-03T12:27:44.893Z,16.50
2019-03-03T12:30:12.972Z,16.60
2019-03-03T12:32:44.100Z,16.20
2019-03-03T12:35:18.275Z,16.10
2019-03-03T12:37:47.556Z,16.50
2019-03-03T12:40:21.629Z,16.60
2019-03-03T12:42:49.840Z,16.30
2019-03-03T12:45:17.940Z,16.30
2019-03-03T12:47:46.833Z,16.20
2019-03-03T12:50:32.163Z,16.50
2019-03-03T12:53:03.095Z,16.20
2019-03-03T12:55:31.166Z,16.00
2019-03-03T12:58:01.814Z,15.70
2019-03-03T13:00:32.388Z,16.10
2019-03-03T13:03:17.408Z,16.50
2019-03-03T13:06:02.145Z,16.60
2019-03-03T13:08:33.249Z,16.80
2019-03-03T13:11:01.399Z,16.70
2019-03-03T13:13:44.532Z,16.70
2019-03-03T13:16:30.824Z,16.60
2019-03-03T13:18:58.907Z,16.50
2019-03-03T13:21:49.025Z,16.30
2019-03-03T13:24:26.488Z,16.00
2019-03-03T13:27:06.693Z,15.80
2019-03-03T13:29:40.520Z,15.90
2019-03-03T13:32:25.620Z,15.80
2019-03-03T13:34:54.010Z,15.80
2019-03-03T13:37:31.189Z,15.40
2019-03-03T13:40:08.408Z,15.30
2019-03-03T13:42:54.710Z,15.50
2019-03-03T13:45:20.878Z,15.60
2019-03-03T13:47:47.101Z,15.60
2019-03-03T13:50:14.458Z,15.80
2019-03-03T13:52:40.664Z,15.60
2019-03-03T13:55:09.743Z,15.40
2019-03-03T13:57:37.157Z,15.40
2019-03-03T14:00:07.124Z,15.40
2019-03-03T14:02:33.712Z,15.60
2019-03-03T14:04:59.915Z,15.80
2019-03-03T14:07:26.109Z,15.80
2019-03-03T14:09:52.273Z,15.60
2019-03-03T14:12:18.445Z,15.60
2019-03-03T14:14:44.620Z,15.30
2019-03-03T14:17:10.840Z,15.00
2019-03-03T14:19:37.076Z,14.90
2019-03-03T14:22:03.324Z,14.90
2019-03-03T14:24:29.694Z,14.90
2019-03-03T14:26:56.052Z,15.00
2019-03-03T14:29:37.277Z,14.60
2019-03-03T14:32:08.165Z,14.50
2019-03-03T14:34:34.358Z,14.50
2019-03-03T14:37:00.537Z,14.40
2019-03-03T14:39:26.841Z,14.50
2019-03-03T14:41:53.033Z,14.50
2019-03-03T14:44:19.217Z,14.20
2019-03-03T14:46:45.393Z,14.10
2019-03-03T14:49:11.581Z,14.20
2019-03-03T14:51:37.790Z,14.40
2019-03-03T14:54:04.344Z,14.50
2019-03-03T14:56:30.544Z,14.50
2019-03-03T14:58:56.942Z,14.30
2019-03-03T15:01:23.464Z,14.30
2019-03-03T15:03:49.680Z,14.40
2019-03-03T15:06:24.166Z,14.30
2019-03-03T15:08:44.961Z,14.30
2019-03-03T15:11:12.285Z,14.10
2019-03-03T15:13:38.624Z,14.00
2019-03-03T15:16:04.814Z,14.00
2019-03-03T15:18:31.020Z,14.20
2019-03-03T15:20:57.196Z,14.00
2019-03-03T15:23:23.350Z,13.90
2019-03-03T15:25:49.579Z,13.90
2019-03-03T15:28:15.840Z,13.90
2019-03-03T15:30:42.035Z,13.90
2019-03-03T15:33:08.210Z,14.00
2019-03-03T15:35:34.384Z,13.90
2019-03-03T15:38:00.548Z,13.90
2019-03-03T15:40:27.523Z,13.90
2019-03-03T15:42:53.943Z,14.00
2019-03-03T15:45:24.861Z,13.90
2019-03-03T15:47:51.281Z,13.80
2019-03-03T15:50:19.672Z,13.90
2019-03-03T15:52:46.149Z,13.90
2019-03-03T15:55:23.100Z,13.80
2019-03-03T15:57:49.261Z,13.90
2019-03-03T16:00:17.840Z,13.90
2019-03-03T16:02:44.033Z,13.80
2019-03-03T16:05:10.725Z,13.70
2019-03-03T16:07:37.708Z,13.60
2019-03-03T16:10:07.693Z,13.60
2019-03-03T16:12:33.873Z,13.50
2019-03-03T16:15:00.166Z,13.50
2019-03-03T16:17:26.538Z,13.50
2019-03-03T16:19:52.737Z,13.30
2019-03-03T16:22:18.902Z,13.30
2019-03-03T16:24:45.087Z,13.10
2019-03-03T16:27:11.251Z,13.10
2019-03-03T16:29:37.469Z,13.00
2019-03-03T16:32:03.706Z,13.00
2019-03-03T16:34:29.874Z,13.00
2019-03-03T16:36:56.084Z,13.10
2019-03-03T16:39:22.292Z,12.90
2019-03-03T16:41:48.489Z,12.80
2019-03-03T16:44:15.676Z,12.70
2019-03-03T16:46:41.919Z,12.50
2019-03-03T16:49:08.188Z,12.40
2019-03-03T16:51:34.385Z,12.40
2019-03-03T16:54:00.547Z,12.30
2019-03-03T16:56:26.820Z,12.30
2019-03-03T16:58:53.042Z,12.10
2019-03-03T17:01:19.239Z,12.10
2019-03-03T17:03:45.760Z,12.00
2019-03-03T17:06:11.938Z,12.00
2019-03-03T17:08:38.114Z,12.10
2019-03-03T17:11:04.317Z,12.10
2019-03-03T17:13:30.486Z,12.10
2019-03-03T17:15:58.729Z,12.10
2019-03-03T17:18:24.804Z,12.00
2019-03-03T17:20:50.974Z,12.00
2019-03-03T17:23:17.301Z,11.90
2019-03-03T17:25:43.509Z,11.90
2019-03-03T17:28:10.747Z,11.90
2019-03-03T17:30:36.924Z,11.90
2019-03-03T17:33:03.096Z,11.80
2019-03-03T17:35:29.270Z,11.80
2019-03-03T17:37:56.664Z,11.70
2019-03-03T17:40:24.477Z,11.70
2019-03-03T17:42:50.759Z,11.70
2019-03-03T17:45:18.660Z,11.70
2019-03-03T17:47:45.096Z,11.60
2019-03-03T17:50:20.216Z,11.70
2019-03-03T17:52:46.406Z,11.70
2019-03-03T17:55:14.183Z,11.70
2019-03-03T17:57:44.879Z,11.60
2019-03-03T18:00:17.559Z,11.60
2019-03-03T18:02:44.005Z,11.60
2019-03-03T18:05:10.268Z,11.60
2019-03-03T18:07:36.496Z,11.50
2019-03-03T18:10:05.609Z,11.40
2019-03-03T18:12:32.100Z,11.30
2019-03-03T18:15:00.340Z,11.30
2019-03-03T18:17:26.637Z,11.20
2019-03-03T18:19:52.961Z,11.20
2019-03-03T18:22:19.213Z,11.10
2019-03-03T18:24:45.409Z,11.00
2019-03-03T18:27:11.587Z,11.00
2019-03-03T18:29:37.764Z,10.90
2019-03-03T18:32:04.321Z,10.90
2019-03-03T18:34:30.585Z,10.90
2019-03-03T18:36:56.905Z,10.90
2019-03-03T18:39:23.109Z,10.70
2019-03-03T18:41:49.406Z,10.70
2019-03-03T18:44:15.874Z,10.60
2019-03-03T18:46:42.036Z,10.70
2019-03-03T18:49:08.517Z,10.70
2019-03-03T18:51:34.825Z,10.80
2019-03-03T18:54:01.012Z,10.70
2019-03-03T18:56:27.244Z,10.70
2019-03-03T18:58:53.581Z,10.60
2019-03-03T19:01:19.833Z,10.40
2019-03-03T19:03:46.080Z,10.40
2019-03-03T19:06:12.277Z,10.40
2019-03-03T19:08:38.499Z,10.50
2019-03-03T19:11:04.657Z,10.50
2019-03-03T19:13:30.865Z,10.50
2019-03-03T19:15:57.153Z,10.40
2019-03-03T19:18:23.360Z,10.40
2019-03-03T19:20:49.608Z,10.40
2019-03-03T19:23:15.797Z,10.30
2019-03-03T19:25:41.962Z,10.20
2019-03-03T19:28:08.168Z,10.20
2019-03-03T19:30:34.744Z,10.20
2019-03-03T19:33:25.631Z,10.10
2019-03-03T19:35:51.888Z,10.00
2019-03-03T19:38:18.376Z,9.90
2019-03-03T19:40:44.595Z,9.80
2019-03-03T19:43:10.996Z,9.70
2019-03-03T19:45:39.887Z,9.60
2019-03-03T19:48:06.519Z,9.50
2019-03-03T19:50:34.108Z,9.60
2019-03-03T19:53:00.288Z,9.60
2019-03-03T19:55:26.713Z,9.60
2019-03-03T19:57:52.890Z,9.60
2019-03-03T20:00:35.352Z,9.50
2019-03-03T20:02:59.852Z,9.40
2019-03-03T20:05:26.066Z,9.40
2019-03-03T20:07:52.267Z,9.30
2019-03-03T20:10:18.556Z,9.30
2019-03-03T20:12:44.736Z,9.30
2019-03-03T20:15:11.148Z,9.10
2019-03-03T20:17:39.440Z,8.90
2019-03-03T20:20:09.222Z,9.00
2019-03-03T20:22:37.533Z,8.80
2019-03-03T20:25:05.550Z,8.70
2019-03-03T20:27:33.229Z,8.60
2019-03-03T20:30:00.443Z,8.40
2019-03-03T20:32:26.756Z,8.30
2019-03-03T20:34:53.124Z,8.30
2019-03-03T20:37:19.338Z,8.30
2019-03-03T20:39:45.548Z,8.30
2019-03-03T20:42:13.620Z,8.20
2019-03-03T20:44:40.188Z,8.20
2019-03-03T20:47:06.525Z,8.10
2019-03-03T20:49:32.713Z,8.10
2019-03-03T20:51:58.902Z,8.10
2019-03-03T20:54:25.407Z,8.10
2019-03-03T20:56:51.584Z,8.20
2019-03-03T20:59:17.784Z,8.50
2019-03-03T21:01:43.952Z,8.60
2019-03-03T21:04:11.260Z,8.60
2019-03-03T21:06:37.619Z,8.70
2019-03-03T21:09:04.580Z,8.80
2019-03-03T21:11:32.658Z,8.90
2019-03-03T21:13:58.851Z,9.00
2019-03-03T21:16:25.041Z,9.10
2019-03-03T21:18:51.243Z,9.10
2019-03-03T21:21:17.420Z,9.20
2019-03-03T21:23:43.617Z,9.20
2019-03-03T21:26:09.794Z,9.20
2019-03-03T21:28:36.012Z,9.20
2019-03-03T21:31:03.394Z,9.30
2019-03-03T21:33:29.619Z,9.30
2019-03-03T21:35:55.805Z,9.30
2019-03-03T21:38:22.008Z,9.40
2019-03-03T21:40:48.209Z,9.40
2019-03-03T21:43:14.371Z,9.40
2019-03-03T21:45:40.564Z,9.40
2019-03-03T21:48:06.765Z,9.40
2019-03-03T21:50:32.932Z,9.40
2019-03-03T21:52:59.104Z,9.40
2019-03-03T21:55:25.600Z,9.30
2019-03-03T21:57:51.765Z,9.40
2019-03-03T22:00:29.946Z,9.40
2019-03-03T22:02:56.309Z,9.40
2019-03-03T22:05:24.534Z,9.30
2019-03-03T22:07:50.800Z,9.30
2019-03-03T22:10:17.208Z,9.30
2019-03-03T22:12:43.400Z,9.20
2019-03-03T22:15:31.385Z,9.10
2019-03-03T22:17:57.588Z,9.00
2019-03-03T22:20:23.753Z,8.90
2019-03-03T22:22:49.944Z,8.90
2019-03-03T22:25:16.100Z,8.90
2019-03-03T22:27:42.320Z,8.90
2019-03-03T22:30:15.900Z,9.00
2019-03-03T22:32:41.947Z,8.90
2019-03-03T22:35:09.421Z,9.00
2019-03-03T22:37:35.584Z,9.00
2019-03-03T22:40:02.853Z,9.00
2019-03-03T22:42:30.024Z,9.10
2019-03-03T22:44:56.199Z,9.10
2019-03-03T22:47:22.401Z,9.10
2019-03-03T22:49:48.563Z,9.10
2019-03-03T22:52:14.747Z,9.10
2019-03-03T22:54:41.243Z,9.10
2019-03-03T22:57:07.490Z,9.10
2019-03-03T22:59:33.709Z,9.20
2019-03-03T23:01:59.908Z,9.20
2019-03-03T23:04:51.236Z,9.20
2019-03-03T23:07:22.326Z,9.10
2019-03-03T23:10:15.219Z,9.10
2019-03-03T23:12:48.036Z,9.10
2019-03-03T23:15:36.775Z,9.10
2019-03-03T23:18:26.720Z,9.30
2019-03-03T23:20:59.499Z,9.30
2019-03-03T23:23:29.498Z,9.20
2019-03-03T23:25:55.681Z,9.20
2019-03-03T23:28:22.045Z,9.30
2019-03-03T23:30:48.932Z,9.30
2019-03-03T23:33:16.304Z,9.30
2019-03-03T23:35:42.484Z,9.30
2019-03-03T23:38:08.644Z,9.40
2019-03-03T23:40:34.854Z,9.30
2019-03-03T23:43:01.021Z,9.50
2019-03-03T23:45:27.360Z,9.40
2019-03-03T23:47:53.520Z,9.40
2019-03-03T23:50:19.722Z,9.50
2019-03-03T23:52:45.901Z,9.60
2019-03-03T23:55:12.324Z,9.60
2019-03-03T23:57:38.500Z,9.60
